Time;durP1;ratioP1;P1;durP2;ratioP2;P2;SDS_P1;SDS_P2;PMS_P1;PMS_P2;Temp;Humidity;BMP_temperature;BMP_pressure;BME280_temperature;BME280_humidity;BME280_pressure;Samples;Min_cycle;Max_cycle;Signal;HPM_P1;HPM_P2
2022/07/18 00:01:33;;;;;;;1.48;1.38;;;15.80;71.90;;;;;;5108804;27;20478;-58
2022/07/18 00:03:59;;;;;;;1.25;1.25;;;15.80;72.00;;;;;;5109051;28;20031;-58
2022/07/18 00:06:25;;;;;;;1.50;1.40;;;15.80;72.10;;;;;;5110303;27;20390;-58
2022/07/18 00:08:50;;;;;;;1.20;1.20;;;15.80;72.10;;;;;;5124227;27;20023;-58
2022/07/18 00:11:16;;;;;;;1.17;1.17;;;15.80;72.30;;;;;;5113868;27;20486;-58
2022/07/18 00:13:42;;;;;;;1.42;1.33;;;15.80;72.30;;;;;;5115666;27;20065;-58
2022/07/18 00:16:07;;;;;;;1.55;1.45;;;15.80;72.50;;;;;;5118753;27;20019;-57
2022/07/18 00:18:33;;;;;;;1.60;1.50;;;15.80;72.60;;;;;;5118137;27;20038;-58
2022/07/18 00:20:59;;;;;;;1.75;1.20;;;15.80;72.70;;;;;;5112781;27;20479;-58
2022/07/18 00:23:24;;;;;;;1.50;1.40;;;15.80;72.90;;;;;;5113782;27;20023;-58
2022/07/18 00:25:50;;;;;;;1.50;1.40;;;15.70;72.90;;;;;;5120972;27;20049;-58
2022/07/18 00:28:16;;;;;;;1.42;1.33;;;15.80;73.10;;;;;;5115823;27;20483;-58
2022/07/18 00:30:42;;;;;;;1.35;1.30;;;15.80;73.30;;;;;;5101194;27;20062;-57
2022/07/18 00:33:08;;;;;;;1.40;1.30;;;15.70;73.40;;;;;;5117718;27;20471;-58
2022/07/18 00:35:34;;;;;;;1.70;1.60;;;15.70;73.60;;;;;;5114097;28;20118;-59
2022/07/18 00:38:01;;;;;;;1.48;1.38;;;15.70;73.70;;;;;;5116545;27;20110;-58
2022/07/18 00:40:28;;;;;;;1.80;1.70;;;15.70;73.80;;;;;;5117268;27;20015;-58
2022/07/18 00:42:54;;;;;;;1.55;1.45;;;15.70;73.90;;;;;;5122525;27;20492;-58
2022/07/18 00:45:19;;;;;;;1.50;1.40;;;15.70;74.10;;;;;;5120424;27;20031;-59
2022/07/18 00:47:45;;;;;;;1.83;1.50;;;15.70;74.20;;;;;;5107406;28;20537;-58
2022/07/18 00:50:11;;;;;;;1.67;1.55;;;15.60;74.20;;;;;;5108769;27;20044;-59
2022/07/18 00:52:37;;;;;;;1.60;1.50;;;15.60;74.40;;;;;;5123299;27;20038;-58
2022/07/18 00:55:05;;;;;;;1.50;1.40;;;15.60;74.50;;;;;;5115430;27;20024;-59
2022/07/18 00:57:31;;;;;;;1.90;1.80;;;15.60;74.70;;;;;;5119839;27;20032;-58
2022/07/18 01:02:41;;;;;;;1.50;1.40;;;15.60;74.80;;;;;;5123569;27;20029;-58
2022/07/18 01:05:07;;;;;;;1.70;1.60;;;15.50;74.70;;;;;;5105554;27;20027;-58
2022/07/18 01:07:35;;;;;;;1.55;1.45;;;15.60;74.90;;;;;;5098510;28;20061;-58
2022/07/18 01:10:02;;;;;;;2.00;1.60;;;15.50;75.00;;;;;;5113156;28;20073;-58
2022/07/18 01:12:27;;;;;;;1.50;1.40;;;15.50;75.10;;;;;;5113340;27;20387;-58
2022/07/18 01:14:55;;;;;;;1.60;1.50;;;15.50;75.10;;;;;;5120372;27;20028;-58
2022/07/18 01:17:21;;;;;;;1.70;1.60;;;15.50;75.20;;;;;;5103764;27;20039;-58
2022/07/18 01:19:47;;;;;;;1.80;1.70;;;15.50;75.30;;;;;;5109638;27;20031;-58
2022/07/18 01:22:15;;;;;;;1.52;1.50;;;15.50;75.40;;;;;;5118918;27;20072;-59
2022/07/18 01:24:41;;;;;;;1.48;1.35;;;15.50;75.30;;;;;;5115998;27;20050;-58
2022/07/18 01:27:07;;;;;;;1.58;1.48;;;15.50;75.40;;;;;;5104963;27;20026;-58
2022/07/18 01:29:33;;;;;;;1.80;1.70;;;15.50;75.50;;;;;;5124054;27;20028;-59
2022/07/18 01:32:08;;;;;;;1.58;1.48;;;15.50;75.60;;;;;;5113559;27;20396;-58
2022/07/18 01:34:35;;;;;;;1.75;1.65;;;15.50;75.70;;;;;;5110792;28;20489;-58
2022/07/18 01:37:02;;;;;;;2.03;1.58;;;15.50;76.50;;;;;;5120067;27;20031;-58
2022/07/18 01:39:28;;;;;;;1.60;1.50;;;15.50;76.10;;;;;;5109565;27;20020;-58
2022/07/18 01:42:07;;;;;;;2.10;1.70;;;15.50;76.30;;;;;;5103125;28;20027;-58
2022/07/18 01:44:34;;;;;;;2.17;1.35;;;15.50;76.30;;;;;;5114873;27;20040;-59
2022/07/18 01:47:01;;;;;;;1.67;1.58;;;15.50;76.40;;;;;;5113324;27;20020;-58
2022/07/18 01:49:28;;;;;;;1.35;1.30;;;15.50;76.40;;;;;;5126510;27;20046;-57
2022/07/18 01:51:54;;;;;;;1.95;1.40;;;15.60;76.40;;;;;;5116863;27;20012;-58
2022/07/18 01:54:21;;;;;;;1.90;1.80;;;15.60;76.40;;;;;;5110531;27;20103;-58
2022/07/18 01:56:47;;;;;;;1.80;1.70;;;15.60;76.30;;;;;;5100375;28;20035;-58
2022/07/18 01:59:13;;;;;;;1.55;1.48;;;15.60;76.10;;;;;;5107901;27;20024;-58
2022/07/18 02:01:38;;;;;;;1.80;1.70;;;15.60;76.20;;;;;;5120316;27;20027;-58
2022/07/18 02:04:04;;;;;;;1.63;1.52;;;15.60;76.10;;;;;;5120175;27;20111;-58
2022/07/18 02:06:30;;;;;;;1.80;1.70;;;15.60;76.30;;;;;;5115178;27;20036;-59
2022/07/18 02:08:56;;;;;;;1.75;1.65;;;15.50;76.20;;;;;;5112086;28;20034;-58
2022/07/18 02:11:22;;;;;;;1.80;1.70;;;15.50;76.20;;;;;;5105749;28;20012;-58
2022/07/18 02:13:48;;;;;;;1.73;1.63;;;15.50;76.20;;;;;;5111247;28;20077;-58
2022/07/18 02:16:14;;;;;;;1.95;1.85;;;15.50;76.40;;;;;;5115924;28;20127;-58
2022/07/18 02:18:40;;;;;;;1.73;1.63;;;15.50;76.50;;;;;;5128576;28;20027;-58
2022/07/18 02:21:07;;;;;;;1.80;1.70;;;15.50;76.60;;;;;;5114980;28;20027;-58
2022/07/18 02:23:33;;;;;;;2.00;1.88;;;15.50;76.60;;;;;;5111958;28;20027;-58
2022/07/18 02:25:59;;;;;;;2.20;2.00;;;15.50;76.90;;;;;;5115684;28;20051;-58
2022/07/18 02:28:25;;;;;;;2.42;1.90;;;15.50;76.80;;;;;;5121259;28;20042;-58
2022/07/18 02:30:50;;;;;;;2.00;1.90;;;15.50;77.00;;;;;;5107934;28;20028;-58
2022/07/18 02:33:16;;;;;;;2.00;1.90;;;15.50;77.10;;;;;;5117964;28;20085;-58
2022/07/18 02:35:42;;;;;;;2.20;2.00;;;15.50;77.80;;;;;;5110486;28;20476;-58
2022/07/18 02:38:08;;;;;;;1.95;1.85;;;15.50;77.20;;;;;;5108868;28;20107;-58
2022/07/18 02:40:34;;;;;;;2.63;1.85;;;15.50;77.30;;;;;;5108316;28;20038;-58
2022/07/18 02:43:00;;;;;;;1.70;1.60;;;15.50;77.40;;;;;;5114066;28;20453;-58
2022/07/18 02:45:26;;;;;;;2.10;1.90;;;15.50;77.70;;;;;;5114620;28;20428;-58
2022/07/18 02:47:52;;;;;;;1.75;1.65;;;15.50;77.70;;;;;;5110102;27;20082;-58
2022/07/18 02:50:18;;;;;;;1.80;1.70;;;15.50;77.70;;;;;;5117365;27;20035;-59
2022/07/18 02:52:44;;;;;;;1.83;1.73;;;15.60;77.70;;;;;;5109775;27;20062;-58
2022/07/18 02:55:12;;;;;;;2.03;1.83;;;15.60;77.80;;;;;;5111722;28;20055;-58
2022/07/18 02:57:38;;;;;;;1.75;1.65;;;15.60;77.80;;;;;;5104985;28;20413;-58
2022/07/18 03:00:09;;;;;;;1.65;1.55;;;15.70;77.80;;;;;;5126261;27;20085;-59
2022/07/18 03:02:35;;;;;;;2.15;1.83;;;15.70;77.70;;;;;;5121377;27;20027;-58
2022/07/18 03:05:03;;;;;;;1.77;1.67;;;15.70;77.70;;;;;;5113972;27;20045;-58
2022/07/18 03:07:28;;;;;;;2.08;1.98;;;15.70;77.70;;;;;;5124125;27;20026;-59
2022/07/18 03:09:54;;;;;;;1.88;1.80;;;15.80;77.60;;;;;;5112954;27;20027;-58
2022/07/18 03:12:20;;;;;;;1.95;1.85;;;15.80;77.60;;;;;;5115883;28;20016;-59
2022/07/18 03:14:45;;;;;;;2.10;1.90;;;15.90;77.50;;;;;;5109251;28;20487;-58
2022/07/18 03:17:11;;;;;;;1.98;1.88;;;15.90;77.60;;;;;;5118662;27;20076;-59
2022/07/18 03:19:37;;;;;;;2.03;1.85;;;16.00;77.70;;;;;;5114277;27;20024;-58
2022/07/18 03:22:04;;;;;;;1.90;1.73;;;16.10;77.70;;;;;;5119442;27;20080;-58
2022/07/18 03:24:30;;;;;;;1.92;1.83;;;16.10;77.70;;;;;;5115786;27;20084;-59
2022/07/18 03:26:56;;;;;;;2.05;1.92;;;16.20;77.70;;;;;;5115766;28;20108;-59
2022/07/18 03:29:22;;;;;;;1.90;1.80;;;16.40;77.90;;;;;;5123951;27;20490;-59
2022/07/18 03:31:48;;;;;;;2.13;1.98;;;16.50;77.90;;;;;;5108171;27;20073;-59
2022/07/18 03:34:14;;;;;;;2.22;2.00;;;16.70;78.50;;;;;;5112601;27;20471;-59
2022/07/18 03:36:40;;;;;;;2.08;1.90;;;16.90;79.20;;;;;;5120368;27;20027;-59
2022/07/18 03:39:07;;;;;;;1.95;1.75;;;17.00;79.40;;;;;;5113926;27;20475;-59
2022/07/18 03:41:32;;;;;;;2.10;2.00;;;17.30;79.50;;;;;;5124830;27;20035;-59
2022/07/18 03:43:58;;;;;;;2.20;2.00;;;17.60;79.70;;;;;;5108828;27;20105;-59
2022/07/18 03:46:24;;;;;;;2.00;1.85;;;18.00;79.80;;;;;;5115235;28;20043;-59
2022/07/18 03:48:50;;;;;;;2.42;2.10;;;18.40;79.60;;;;;;5106293;27;20073;-59
2022/07/18 03:51:16;;;;;;;1.75;1.65;;;18.90;79.00;;;;;;5115028;27;20066;-59
2022/07/18 03:53:41;;;;;;;1.60;1.50;;;19.40;78.00;;;;;;5112452;27;20038;-59
2022/07/18 03:56:07;;;;;;;1.65;1.55;;;20.10;76.70;;;;;;5113102;28;20394;-59
2022/07/18 03:58:33;;;;;;;1.80;1.70;;;20.90;74.70;;;;;;5118165;27;20036;-59
2022/07/18 04:00:58;;;;;;;2.00;1.80;;;21.70;72.80;;;;;;5115501;27;20112;-59
2022/07/18 04:03:24;;;;;;;1.25;1.13;;;22.60;70.80;;;;;;5109367;27;20110;-59
2022/07/18 04:05:50;;;;;;;1.10;1.10;;;23.40;68.70;;;;;;5120899;27;20111;-59
2022/07/18 04:08:16;;;;;;;1.60;1.50;;;24.20;66.70;;;;;;5112655;27;20063;-59
2022/07/18 04:10:43;;;;;;;1.27;1.15;;;24.90;65.10;;;;;;5121852;27;20427;-59
2022/07/18 04:13:08;;;;;;;1.25;1.17;;;25.60;63.70;;;;;;5114538;27;20038;-59
2022/07/18 04:15:35;;;;;;;1.52;1.42;;;26.30;62.30;;;;;;5122711;27;20039;-58
2022/07/18 04:18:01;;;;;;;1.70;1.23;;;26.90;60.80;;;;;;5113600;28;20023;-59
2022/07/18 04:20:27;;;;;;;1.58;1.48;;;27.50;59.80;;;;;;5114949;28;20080;-59
2022/07/18 04:22:58;;;;;;;1.50;1.40;;;28.10;58.70;;;;;;5125078;27;20020;-59
2022/07/18 04:25:26;;;;;;;1.60;1.40;;;28.60;57.60;;;;;;5113287;28;20102;-59
2022/07/18 04:27:53;;;;;;;1.17;1.17;;;29.10;56.70;;;;;;5111071;27;20020;-59
2022/07/18 04:30:23;;;;;;;1.15;1.13;;;29.60;55.60;;;;;;5109605;27;20020;-59
2022/07/18 04:32:50;;;;;;;1.50;1.40;;;30.00;54.90;;;;;;5112407;27;20479;-57
2022/07/18 04:35:15;;;;;;;1.00;1.00;;;30.30;54.40;;;;;;5102515;27;20502;-57
2022/07/18 04:37:41;;;;;;;1.52;1.42;;;30.60;53.90;;;;;;5122226;27;20110;-57
2022/07/18 04:40:09;;;;;;;2.10;1.50;;;31.00;53.20;;;;;;5123497;27;20028;-57
2022/07/18 04:42:35;;;;;;;1.02;1.02;;;31.30;52.30;;;;;;5111122;27;20070;-57
2022/07/18 04:45:02;;;;;;;1.23;1.13;;;31.50;52.00;;;;;;5112799;27;20497;-58
2022/07/18 04:47:28;;;;;;;1.40;1.30;;;31.60;51.30;;;;;;5107423;27;20062;-58
2022/07/18 04:49:54;;;;;;;1.33;1.23;;;31.80;51.10;;;;;;5119158;27;20118;-57
2022/07/18 04:52:20;;;;;;;1.70;1.60;;;32.00;50.50;;;;;;5114056;28;20023;-57
2022/07/18 04:54:46;;;;;;;1.17;1.10;;;32.00;50.00;;;;;;5111691;27;20123;-57
2022/07/18 04:57:14;;;;;;;1.20;1.20;;;31.80;49.20;;;;;;5115502;27;20511;-57
2022/07/18 04:59:43;;;;;;;1.52;1.40;;;31.30;49.20;;;;;;5110171;27;20038;-57
2022/07/18 05:02:10;;;;;;;1.73;1.63;;;30.70;49.50;;;;;;5105110;27;20043;-59
2022/07/18 05:04:39;;;;;;;1.35;1.25;;;30.40;50.10;;;;;;5106100;27;20036;-59
2022/07/18 05:07:06;;;;;;;1.17;1.17;;;30.40;50.10;;;;;;5102899;28;20407;-59
2022/07/18 05:09:32;;;;;;;1.73;1.63;;;30.40;50.30;;;;;;5099108;27;20039;-59
2022/07/18 05:11:58;;;;;;;1.35;1.30;;;30.60;50.20;;;;;;5104998;28;20024;-59
2022/07/18 05:14:23;;;;;;;1.55;1.45;;;30.80;49.60;;;;;;5119596;27;20031;-59
2022/07/18 05:16:49;;;;;;;1.95;1.80;;;30.90;49.60;;;;;;5107215;27;20035;-59
2022/07/18 05:19:15;;;;;;;1.55;1.45;;;30.90;49.50;;;;;;5107657;27;20265;-59
2022/07/18 05:21:43;;;;;;;1.88;1.30;;;31.00;49.50;;;;;;5101674;27;20036;-59
2022/07/18 05:24:08;;;;;;;1.40;1.30;;;31.10;49.30;;;;;;5083379;28;20050;-59
2022/07/18 05:26:34;;;;;;;1.58;1.48;;;31.10;48.80;;;;;;5104873;27;20101;-59
2022/07/18 05:29:00;;;;;;;1.95;1.75;;;31.20;48.30;;;;;;5108878;27;20032;-57
2022/07/18 05:31:26;;;;;;;1.58;1.48;;;31.10;47.70;;;;;;5110185;27;20027;-59
2022/07/18 05:33:51;;;;;;;1.50;1.40;;;30.80;47.80;;;;;;5106422;27;20107;-59
2022/07/18 05:36:17;;;;;;;1.48;1.38;;;30.20;47.90;;;;;;5099045;27;20448;-59
2022/07/18 05:38:42;;;;;;;1.60;1.50;;;29.40;48.40;;;;;;5102983;27;20039;-59
2022/07/18 05:41:08;;;;;;;1.65;1.50;;;28.50;49.40;;;;;;5109588;27;20028;-56
2022/07/18 05:43:34;;;;;;;1.67;1.58;;;27.70;50.30;;;;;;5113600;27;20047;-55
2022/07/18 05:46:00;;;;;;;1.70;1.60;;;26.90;51.30;;;;;;5109126;27;20020;-55
2022/07/18 05:48:26;;;;;;;1.50;1.40;;;26.30;52.30;;;;;;5101824;28;20020;-56
2022/07/18 05:50:51;;;;;;;1.90;1.80;;;25.70;53.00;;;;;;5100325;28;20089;-56
2022/07/18 05:53:17;;;;;;;1.58;1.48;;;25.30;53.70;;;;;;5092430;28;20028;-55
2022/07/18 05:55:43;;;;;;;1.70;1.60;;;24.90;54.30;;;;;;5105045;27;20027;-56
2022/07/18 05:58:08;;;;;;;1.85;1.65;;;24.60;54.80;;;;;;5102414;27;20015;-56
2022/07/18 06:00:34;;;;;;;1.63;1.52;;;24.30;55.30;;;;;;5099533;28;20038;-54
2022/07/18 06:03:00;;;;;;;1.70;1.60;;;24.10;55.90;;;;;;5099730;27;20089;-55
2022/07/18 06:05:26;;;;;;;1.75;1.65;;;24.00;56.30;;;;;;5099451;27;20544;-55
2022/07/18 06:07:53;;;;;;;1.58;1.48;;;23.90;56.60;;;;;;5087067;28;20020;-54
2022/07/18 06:10:20;;;;;;;1.70;1.60;;;23.90;56.90;;;;;;5088645;28;20024;-55
2022/07/18 06:12:46;;;;;;;1.95;1.70;;;23.70;56.90;;;;;;5084654;28;20028;-55
2022/07/18 06:15:12;;;;;;;1.75;1.65;;;23.70;57.20;;;;;;5062970;28;20039;-55
2022/07/18 06:17:38;;;;;;;1.67;1.58;;;23.60;57.60;;;;;;5064535;28;20032;-53
2022/07/18 06:20:05;;;;;;;1.63;1.52;;;23.50;57.50;;;;;;5077504;28;20036;-57
2022/07/18 06:22:31;;;;;;;1.83;1.73;;;23.50;57.80;;;;;;5076134;28;20078;-55
2022/07/18 06:24:57;;;;;;;1.67;1.58;;;23.40;58.10;;;;;;5076369;28;20032;-56
2022/07/18 06:27:22;;;;;;;1.95;1.85;;;23.30;58.20;;;;;;5094676;28;20071;-57
2022/07/18 06:29:48;;;;;;;1.92;1.77;;;23.20;58.40;;;;;;5091930;28;20103;-56
2022/07/18 06:32:14;;;;;;;1.83;1.73;;;23.10;58.30;;;;;;5093644;28;20036;-56
2022/07/18 06:34:39;;;;;;;1.85;1.75;;;23.00;58.60;;;;;;5102875;28;20671;-56
2022/07/18 06:37:05;;;;;;;2.35;2.15;;;23.00;58.80;;;;;;5096101;28;20035;-55
2022/07/18 06:39:31;;;;;;;2.17;1.92;;;23.00;58.90;;;;;;5096178;28;20028;-57
2022/07/18 06:41:56;;;;;;;1.92;1.83;;;23.00;59.00;;;;;;5097941;28;20027;-56
2022/07/18 06:44:22;;;;;;;2.20;2.00;;;23.00;59.00;;;;;;5096596;28;20446;-56
2022/07/18 06:46:47;;;;;;;1.85;1.75;;;23.00;59.10;;;;;;5089996;28;20060;-56
2022/07/18 06:49:13;;;;;;;2.17;1.98;;;23.00;59.20;;;;;;5090922;28;20373;-56
2022/07/18 06:51:39;;;;;;;2.28;2.13;;;23.00;59.00;;;;;;5088424;28;20040;-56
2022/07/18 06:54:04;;;;;;;1.88;1.77;;;22.90;58.90;;;;;;5078283;28;20054;-56
2022/07/18 06:56:30;;;;;;;1.92;1.73;;;22.90;59.10;;;;;;5093292;28;20092;-55
2022/07/18 06:58:56;;;;;;;2.10;1.80;;;22.90;59.20;;;;;;5098565;28;20123;-55
2022/07/18 07:01:22;;;;;;;1.70;1.60;;;22.90;59.30;;;;;;5087353;28;20032;-55
2022/07/18 07:03:47;;;;;;;1.80;1.70;;;22.90;59.30;;;;;;5092968;28;20139;-55
2022/07/18 07:06:15;;;;;;;2.10;1.90;;;22.90;59.20;;;;;;5095726;28;20093;-55
2022/07/18 07:08:41;;;;;;;2.10;1.90;;;22.90;59.40;;;;;;5084562;28;20028;-55
2022/07/18 07:11:07;;;;;;;1.75;1.65;;;22.80;59.30;;;;;;5086918;28;20038;-57
2022/07/18 07:13:33;;;;;;;1.75;1.65;;;22.80;59.40;;;;;;5090606;28;20035;-55
2022/07/18 07:15:59;;;;;;;2.17;1.90;;;22.80;59.40;;;;;;5089128;28;20059;-54
2022/07/18 07:18:24;;;;;;;1.83;1.73;;;22.80;59.50;;;;;;5083694;28;20651;-54
2022/07/18 07:20:50;;;;;;;1.80;1.70;;;22.80;59.80;;;;;;5097391;28;20828;-54
2022/07/18 07:23:16;;;;;;;1.80;1.70;;;22.70;59.70;;;;;;5088533;28;20448;-55
2022/07/18 07:25:43;;;;;;;2.53;2.05;;;22.70;59.70;;;;;;5084671;28;20105;-56
2022/07/18 07:28:09;;;;;;;2.22;1.70;;;22.70;59.90;;;;;;5090586;28;20123;-57
2022/07/18 07:30:35;;;;;;;2.05;1.85;;;22.80;60.10;;;;;;5092154;28;20524;-58
2022/07/18 07:33:02;;;;;;;1.80;1.70;;;22.70;60.00;;;;;;5093857;27;20030;-58
2022/07/18 07:35:28;;;;;;;1.65;1.50;;;22.70;60.00;;;;;;5096986;27;20076;-57
2022/07/18 07:37:56;;;;;;;1.50;1.40;;;22.80;60.20;;;;;;5090578;27;20028;-57
2022/07/18 07:40:24;;;;;;;4.55;1.70;;;22.70;59.90;;;;;;5088573;27;20069;-58
2022/07/18 07:42:50;;;;;;;2.00;1.90;;;22.70;59.90;;;;;;5094984;27;20114;-58
2022/07/18 07:45:17;;;;;;;1.60;1.50;;;22.70;59.70;;;;;;5086633;27;20696;-56
2022/07/18 07:47:43;;;;;;;1.70;1.60;;;22.70;59.80;;;;;;5075396;27;21560;-56
2022/07/18 07:50:10;;;;;;;1.90;1.80;;;22.70;59.90;;;;;;5076786;27;20130;-54
2022/07/18 07:52:36;;;;;;;1.85;1.75;;;22.70;60.00;;;;;;5077246;27;20087;-55
2022/07/18 07:55:03;;;;;;;2.03;1.60;;;22.70;60.10;;;;;;5076914;27;21453;-55
2022/07/18 07:57:29;;;;;;;1.90;1.80;;;22.70;60.00;;;;;;5077267;27;20035;-56
2022/07/18 07:59:54;;;;;;;4.05;3.03;;;22.80;60.10;;;;;;5073830;27;20752;-56
2022/07/18 08:02:20;;;;;;;2.53;2.33;;;22.80;59.90;;;;;;5083008;27;20659;-56
2022/07/18 08:04:49;;;;;;;2.70;2.50;;;22.80;60.00;;;;;;5087053;27;20035;-55
2022/07/18 08:07:16;;;;;;;3.10;2.80;;;22.80;60.10;;;;;;5084150;27;20071;-55
2022/07/18 08:09:41;;;;;;;2.58;2.38;;;22.80;60.40;;;;;;5086503;27;20024;-54
2022/07/18 08:12:07;;;;;;;3.08;2.33;;;22.80;60.30;;;;;;5076719;27;20028;-55
2022/07/18 08:14:33;;;;;;;3.47;2.47;;;22.90;60.20;;;;;;5085498;27;20070;-55
2022/07/18 08:16:59;;;;;;;1.95;1.83;;;22.90;60.30;;;;;;5080858;27;20047;-54
2022/07/18 08:19:25;;;;;;;2.28;2.08;;;22.90;60.00;;;;;;5079220;27;20532;-55
2022/07/18 08:21:50;;;;;;;1.92;1.80;;;22.90;60.00;;;;;;5077999;27;20031;-56
2022/07/18 08:24:16;;;;;;;2.17;1.88;;;22.80;59.80;;;;;;5070879;27;20066;-56
2022/07/18 08:26:42;;;;;;;2.00;1.90;;;22.90;59.90;;;;;;5083128;27;20667;-57
2022/07/18 08:29:08;;;;;;;1.95;1.80;;;22.90;59.90;;;;;;5076319;28;20031;-56
2022/07/18 08:31:34;;;;;;;2.10;1.52;;;22.90;59.90;;;;;;5078642;27;20047;-57
2022/07/18 08:34:00;;;;;;;1.73;1.63;;;22.90;59.70;;;;;;5080094;27;20062;-55
2022/07/18 08:36:26;;;;;;;2.30;1.85;;;22.90;59.50;;;;;;5082735;27;20372;-57
2022/07/18 08:38:52;;;;;;;2.10;1.90;;;22.90;59.60;;;;;;5079954;27;20035;-55
2022/07/18 08:41:18;;;;;;;1.85;1.73;;;22.80;59.80;;;;;;5086130;27;20475;-56
2022/07/18 08:43:46;;;;;;;2.33;2.05;;;22.90;59.80;;;;;;5077299;27;20035;-56
2022/07/18 08:46:12;;;;;;;1.45;1.42;;;22.80;59.70;;;;;;5071007;27;20026;-55
2022/07/18 08:48:40;;;;;;;2.03;1.83;;;22.80;59.60;;;;;;5068647;27;20456;-56
2022/07/18 08:51:06;;;;;;;1.75;1.65;;;22.80;59.70;;;;;;5073514;27;20048;-57
2022/07/18 08:53:33;;;;;;;2.10;2.00;;;22.80;59.80;;;;;;5072960;27;20063;-55
2022/07/18 08:55:59;;;;;;;2.20;2.00;;;22.80;59.70;;;;;;5076771;27;20032;-55
2022/07/18 08:58:25;;;;;;;1.90;1.70;;;22.80;59.80;;;;;;5076084;27;20036;-55
2022/07/18 09:00:51;;;;;;;2.20;2.00;;;22.80;59.80;;;;;;5065774;27;20059;-54
2022/07/18 09:03:17;;;;;;;2.00;1.90;;;22.80;59.70;;;;;;5080598;27;20487;-54
2022/07/18 09:05:42;;;;;;;2.13;1.90;;;22.80;59.60;;;;;;5081883;27;21208;-56
2022/07/18 09:08:16;;;;;;;2.35;2.15;;;22.80;59.60;;;;;;5074887;27;20031;-56
2022/07/18 09:10:54;;;;;;;2.88;1.90;;;22.80;59.50;;;;;;5077414;27;20031;-54
2022/07/18 09:13:23;;;;;;;2.13;1.92;;;22.80;59.40;;;;;;5078604;28;20032;-55
2022/07/18 09:16:04;;;;;;;1.92;1.77;;;22.80;59.50;;;;;;5082826;27;20116;-55
2022/07/18 09:18:31;;;;;;;1.83;1.60;;;22.80;59.50;;;;;;5083123;27;20030;-55
2022/07/18 09:21:03;;;;;;;1.85;1.75;;;22.80;59.70;;;;;;5074324;27;20036;-55
2022/07/18 09:23:34;;;;;;;2.47;2.28;;;22.80;59.40;;;;;;5076891;27;20118;-55
2022/07/18 09:26:01;;;;;;;2.30;2.10;;;22.80;59.30;;;;;;5076278;28;20042;-54
2022/07/18 09:28:27;;;;;;;2.30;2.10;;;22.80;59.30;;;;;;5081712;28;20035;-54
2022/07/18 09:30:54;;;;;;;2.22;2.03;;;22.70;59.60;;;;;;5081532;28;20038;-54
2022/07/18 09:33:21;;;;;;;2.38;2.20;;;22.70;59.90;;;;;;5074663;27;20491;-54
2022/07/18 09:35:54;;;;;;;2.08;1.88;;;22.70;60.10;;;;;;5080024;28;20031;-54
2022/07/18 09:38:21;;;;;;;2.25;1.90;;;22.70;59.90;;;;;;5076891;28;20454;-55
2022/07/18 09:40:52;;;;;;;2.08;1.95;;;22.70;59.90;;;;;;5065363;28;20055;-53
2022/07/18 09:43:20;;;;;;;2.08;1.92;;;22.80;59.90;;;;;;5082260;27;20042;-54
2022/07/18 09:45:51;;;;;;;1.77;1.67;;;22.80;59.80;;;;;;5069715;28;20367;-54
2022/07/18 09:48:20;;;;;;;2.20;2.08;;;22.80;59.90;;;;;;5071475;28;20047;-55
2022/07/18 09:50:59;;;;;;;1.75;1.65;;;22.80;59.70;;;;;;5070199;28;20418;-54
2022/07/18 09:53:27;;;;;;;1.77;1.60;;;22.80;59.50;;;;;;5081402;27;20036;-55
2022/07/18 09:55:55;;;;;;;1.70;1.60;;;22.80;59.50;;;;;;5080229;27;20028;-55
2022/07/18 09:58:26;;;;;;;2.03;1.73;;;22.90;59.60;;;;;;5068187;28;20034;-55
2022/07/18 10:00:54;;;;;;;1.75;1.65;;;22.90;59.50;;;;;;5077151;27;20035;-54
2022/07/18 10:03:21;;;;;;;1.60;1.33;;;22.80;59.50;;;;;;5068432;28;20181;-55
2022/07/18 10:05:48;;;;;;;1.35;1.25;;;22.90;59.10;;;;;;5072549;28;20028;-55
2022/07/18 10:08:17;;;;;;;1.70;1.50;;;22.90;59.10;;;;;;5081899;28;20036;-54
2022/07/18 10:10:46;;;;;;;1.20;1.10;;;22.90;59.20;;;;;;5068390;28;20034;-54
2022/07/18 10:13:12;;;;;;;1.30;1.30;;;22.90;59.20;;;;;;5074659;27;20089;-55
2022/07/18 10:15:41;;;;;;;1.48;1.40;;;22.90;59.10;;;;;;5073552;28;20055;-55
2022/07/18 10:18:12;;;;;;;1.45;1.35;;;23.00;59.10;;;;;;5073946;28;20072;-55
2022/07/18 10:20:48;;;;;;;4.20;1.80;;;23.00;59.00;;;;;;5084264;28;20020;-55
2022/07/18 10:23:21;;;;;;;1.90;1.80;;;23.00;58.90;;;;;;5083936;28;20486;-55
2022/07/18 10:26:05;;;;;;;1.50;1.40;;;23.10;58.80;;;;;;5081434;28;20145;-54
2022/07/18 10:28:31;;;;;;;1.42;1.33;;;23.10;58.50;;;;;;5086303;28;20080;-55
2022/07/18 10:31:14;;;;;;;1.60;1.50;;;23.10;58.60;;;;;;5078332;28;20039;-55
2022/07/18 10:33:48;;;;;;;1.52;1.42;;;23.10;58.40;;;;;;5083811;28;20028;-57
2022/07/18 10:36:18;;;;;;;1.70;1.60;;;23.10;58.50;;;;;;5079872;28;20479;-57
2022/07/18 10:39:15;;;;;;;1.77;1.63;;;23.10;58.30;;;;;;5086088;28;20046;-56
2022/07/18 10:41:43;;;;;;;1.65;1.55;;;23.10;58.30;;;;;;5076851;28;22506;-56
2022/07/18 10:44:24;;;;;;;1.58;1.48;;;23.10;58.10;;;;;;5073984;28;20134;-56
2022/07/18 10:47:10;;;;;;;1.40;1.30;;;23.10;57.70;;;;;;5078216;28;20051;-55
2022/07/18 10:49:47;;;;;;;1.88;1.63;;;23.10;58.00;;;;;;5070979;28;20453;-55
2022/07/18 10:52:25;;;;;;;1.52;1.40;;;23.10;58.00;;;;;;5074069;28;20032;-53
2022/07/18 10:55:04;;;;;;;1.55;1.45;;;23.10;58.00;;;;;;5071037;28;20031;-55
2022/07/18 10:57:35;;;;;;;1.23;1.23;;;23.10;58.00;;;;;;5072079;28;20127;-56
2022/07/18 11:00:11;;;;;;;1.50;1.40;;;23.10;58.00;;;;;;5070851;28;20023;-57
2022/07/18 11:02:41;;;;;;;1.45;1.35;;;23.10;58.00;;;;;;5071955;28;20051;-55
2022/07/18 11:05:25;;;;;;;5.40;1.70;;;23.10;57.90;;;;;;5069012;28;20031;-55
2022/07/18 11:08:03;;;;;;;2.50;1.90;;;23.10;57.90;;;;;;5081408;27;20328;-55
2022/07/18 11:13:22;;;;;;;4.05;2.00;;;23.10;57.80;;;;;;5091634;27;20458;-57
2022/07/18 11:16:12;;;;;;;1.70;1.60;;;23.10;58.00;;;;;;5083404;27;20495;-55
2022/07/18 11:18:44;;;;;;;1.83;1.73;;;23.10;57.40;;;;;;5090480;27;20031;-56
2022/07/18 11:21:19;;;;;;;1.48;1.38;;;23.10;57.40;;;;;;5079198;27;20085;-55
2022/07/18 11:23:49;;;;;;;1.58;1.48;;;23.10;57.50;;;;;;5079993;27;20032;-54
2022/07/18 11:26:16;;;;;;;1.40;1.30;;;23.10;57.40;;;;;;5080135;27;20024;-55
2022/07/18 11:28:42;;;;;;;1.67;1.58;;;23.10;57.10;;;;;;5081697;27;20824;-55
2022/07/18 11:31:11;;;;;;;1.60;1.50;;;23.10;57.10;;;;;;5082101;27;20050;-55
2022/07/18 11:33:40;;;;;;;1.65;1.55;;;23.10;56.90;;;;;;5081053;27;20055;-55
2022/07/18 11:36:27;;;;;;;1.55;1.45;;;23.10;57.70;;;;;;5075654;27;20365;-56
2022/07/18 11:38:56;;;;;;;1.60;1.50;;;23.10;57.00;;;;;;5080139;27;20027;-56
2022/07/18 11:41:23;;;;;;;1.70;1.60;;;23.10;57.10;;;;;;5090065;27;20027;-55
2022/07/18 11:43:50;;;;;;;1.52;1.42;;;23.10;57.10;;;;;;5085962;27;20039;-55
2022/07/18 11:46:19;;;;;;;1.77;1.67;;;23.10;57.20;;;;;;5077728;27;20031;-55
2022/07/18 11:48:47;;;;;;;2.42;1.92;;;23.20;57.20;;;;;;5079521;27;20027;-57
2022/07/18 11:51:18;;;;;;;1.63;1.52;;;23.30;57.20;;;;;;5075586;27;20137;-56
2022/07/18 11:53:49;;;;;;;1.35;1.25;;;23.30;57.30;;;;;;5085341;27;20028;-56
2022/07/18 11:56:15;;;;;;;;;;;23.40;57.20;;;;;;5081320;27;20036;-56
2022/07/18 11:58:42;;;;;;;1.52;1.42;;;23.40;57.30;;;;;;5080028;27;19916;-56
2022/07/18 12:01:08;;;;;;;1.27;1.17;;;23.40;57.10;;;;;;5075787;27;20041;-57
2022/07/18 12:03:40;;;;;;;1.95;1.80;;;23.40;57.00;;;;;;5090116;27;20422;-57
2022/07/18 12:06:13;;;;;;;1.63;1.52;;;23.50;57.10;;;;;;5081679;27;20036;-56
2022/07/18 12:08:44;;;;;;;1.55;1.45;;;23.50;57.20;;;;;;5080089;27;20614;-57
2022/07/18 12:11:11;;;;;;;1.70;1.60;;;23.50;56.90;;;;;;5080325;27;20039;-57
2022/07/18 12:13:55;;;;;;;2.42;1.58;;;23.50;56.70;;;;;;5076356;27;20035;-56
2022/07/18 12:16:30;;;;;;;1.55;1.45;;;23.50;56.90;;;;;;5075006;27;20036;-56
2022/07/18 12:19:11;;;;;;;1.77;1.65;;;23.50;57.20;;;;;;5080085;27;20047;-57
2022/07/18 12:22:03;;;;;;;1.80;1.70;;;23.50;57.30;;;;;;5084028;27;23079;-57
2022/07/18 12:24:41;;;;;;;1.45;1.35;;;23.50;57.20;;;;;;5082062;27;20039;-56
2022/07/18 12:27:18;;;;;;;1.80;1.70;;;23.50;57.30;;;;;;5084338;27;20085;-57
2022/07/18 12:30:17;;;;;;;1.50;1.40;;;23.60;57.30;;;;;;5080625;27;20027;-59
2022/07/18 12:32:55;;;;;;;1.70;1.60;;;23.50;57.10;;;;;;5082946;27;20033;-56
2022/07/18 12:35:35;;;;;;;1.80;1.70;;;23.50;57.30;;;;;;5079960;27;20038;-57
2022/07/18 12:38:15;;;;;;;1.85;1.75;;;23.50;57.50;;;;;;5082592;27;20032;-57
2022/07/18 12:41:01;;;;;;;1.70;1.57;;;23.50;57.40;;;;;;5086168;27;20027;-57
2022/07/18 12:43:37;;;;;;;1.77;1.38;;;23.40;57.10;;;;;;5085747;27;20035;-56
2022/07/18 12:46:08;;;;;;;1.60;1.50;;;23.40;57.30;;;;;;5081097;28;20070;-58
2022/07/18 12:48:36;;;;;;;1.42;1.33;;;23.40;57.10;;;;;;5079371;27;20042;-54
2022/07/18 12:51:06;;;;;;;1.60;1.50;;;23.40;57.10;;;;;;5072028;27;20146;-54
2022/07/18 12:53:34;;;;;;;1.60;1.50;;;23.40;57.10;;;;;;5076254;28;20039;-54
2022/07/18 12:55:59;;;;;;;1.60;1.50;;;23.40;57.10;;;;;;5076311;27;20059;-54
2022/07/18 12:58:25;;;;;;;1.60;1.50;;;23.40;56.80;;;;;;5078491;27;20127;-55